Main page
METAR-TAF:

METAR-TAF

Airports :

Oil platform

Sleipner, Norway

latitude: 58-22-00N, longitude: 001-54-25E, elevation: 50 m

Current weather observation

The report was made 31 minutes ago, at 01:50 UTC
Wind 40 kt from the West/Southwest
Temperature 9°C
Humidity 93%
Pressure 1017 hPa
Visibility 10 km or more

METAR: ENSL 210150Z AUTO 24040KT 9999NDV NCD 09/08 Q1017 W05/S4

Time: 03:21 (02:21 UTC)

Forecast

The report was made 15 hours and 21 minutes ago, at 11:00 UTC
Forecast valid from 20 at 12 UTC to 20 at 18 UTC
Wind 18 kt from the West
Visibility 10 km or more
Few clouds at a height of 4000 ft
Scattered clouds at a height of 8000 ft
Becoming
from 20 at 16 UTC to 20 at 18 UTC
Wind 20 kt from the South/Southwest

TAF: ENSL 201100Z 2012/2018 26018KT 9999 FEW040 SCT080 BECMG 2016/2018 20020KT

Weather observations and forecasts of more than 4000 airports (METAR and TAF reports).

The available stations are represented by yellow and red dots on the map.

Hover mouse over dot to see the name of the station.

Then click to see weather observations and forecasts.

To change the map : click on the green buttons with a black cross to zoom in, on the green button with a dash to zoom out, or on the green arrows for adjacent maps.


METAR-TAF: